Time;durP1;ratioP1;P1;durP2;ratioP2;P2;SDS_P1;SDS_P2;PMS_P1;PMS_P2;Temp;Humidity;BMP_temperature;BMP_pressure;BME280_temperature;BME280_humidity;BME280_pressure;Samples;Min_cycle;Max_cycle;Signal;HPM_P1;HPM_P2
2021/07/07 00:02:01;;;;;;;2.60;2.40;;;27.20;53.90;;;;;;5040639;28;20335;-65
2021/07/07 00:04:28;;;;;;;2.72;2.53;;;27.20;53.80;;;;;;5009006;28;20073;-65
2021/07/07 00:06:55;;;;;;;2.75;2.55;;;27.20;53.90;;;;;;5008724;28;20645;-65
2021/07/07 00:09:22;;;;;;;2.42;2.33;;;27.20;53.90;;;;;;5008684;28;20081;-65
2021/07/07 00:11:49;;;;;;;2.55;2.42;;;27.20;53.90;;;;;;5009196;28;20121;-65
2021/07/07 00:14:16;;;;;;;2.75;2.55;;;27.20;53.90;;;;;;5009092;28;20691;-65
2021/07/07 00:16:44;;;;;;;2.60;2.40;;;27.20;53.90;;;;;;5008684;28;20061;-65
2021/07/07 00:19:11;;;;;;;2.38;2.17;;;27.20;54.00;;;;;;5008638;28;20488;-65
2021/07/07 00:21:38;;;;;;;3.03;2.83;;;27.20;54.00;;;;;;5008938;28;20618;-65
2021/07/07 00:24:05;;;;;;;2.90;2.70;;;27.20;54.00;;;;;;5008606;28;20045;-65
2021/07/07 00:26:33;;;;;;;2.78;2.60;;;27.20;54.00;;;;;;5008578;28;20050;-65
2021/07/07 00:29:00;;;;;;;2.35;2.15;;;27.10;53.90;;;;;;5008602;28;20542;-65
2021/07/07 00:31:27;;;;;;;2.80;2.60;;;27.10;54.00;;;;;;5008403;28;20137;-65
2021/07/07 00:33:54;;;;;;;2.22;2.13;;;27.10;54.00;;;;;;5008543;28;20104;-65
2021/07/07 00:36:21;;;;;;;2.63;2.42;;;27.10;54.00;;;;;;5007855;28;20081;-65
2021/07/07 00:38:48;;;;;;;3.40;3.10;;;27.10;54.00;;;;;;5008818;28;20056;-65
2021/07/07 00:41:15;;;;;;;2.80;2.60;;;27.10;54.00;;;;;;5008381;28;20085;-66
2021/07/07 00:43:43;;;;;;;2.28;2.08;;;27.10;54.00;;;;;;5008208;28;20141;-65
2021/07/07 00:46:10;;;;;;;2.75;2.55;;;27.10;54.00;;;;;;5008157;28;20081;-65
2021/07/07 00:48:38;;;;;;;2.50;2.30;;;27.10;54.10;;;;;;5008486;28;20046;-65
2021/07/07 00:51:05;;;;;;;2.33;2.22;;;27.10;54.10;;;;;;5008089;28;20070;-65
2021/07/07 00:53:32;;;;;;;2.55;2.38;;;27.10;54.10;;;;;;5008616;28;20084;-65
2021/07/07 00:56:00;;;;;;;2.60;2.40;;;27.00;54.00;;;;;;4990338;28;20078;-64
2021/07/07 00:58:29;;;;;;;2.60;2.15;;;27.10;54.10;;;;;;5008565;28;20108;-65
2021/07/07 01:00:59;;;;;;;2.20;2.10;;;27.10;54.10;;;;;;5008270;28;20060;-65
2021/07/07 01:03:26;;;;;;;2.58;2.38;;;27.10;54.10;;;;;;5008343;28;20085;-65
2021/07/07 01:05:53;;;;;;;2.33;2.22;;;27.10;54.10;;;;;;5007026;28;20148;-65
2021/07/07 01:08:20;;;;;;;3.20;2.30;;;27.10;54.60;;;;;;5008526;28;20076;-65
2021/07/07 01:10:47;;;;;;;2.30;2.20;;;27.10;54.10;;;;;;5008158;28;20053;-65
2021/07/07 01:13:15;;;;;;;2.60;2.40;;;27.10;54.10;;;;;;5008359;28;20057;-65
2021/07/07 01:15:43;;;;;;;2.22;2.13;;;27.10;54.10;;;;;;5007750;28;20046;-66
2021/07/07 01:18:11;;;;;;;3.00;2.40;;;27.10;54.10;;;;;;5008330;28;20081;-65
2021/07/07 01:20:40;;;;;;;2.50;2.30;;;27.00;54.00;;;;;;5007763;28;20050;-65
2021/07/07 01:23:08;;;;;;;2.47;2.38;;;27.00;54.00;;;;;;5006938;28;20133;-65
2021/07/07 01:25:38;;;;;;;2.63;2.42;;;27.00;54.00;;;;;;5007726;28;20140;-67
2021/07/07 01:28:06;;;;;;;;;;;27.00;54.10;;;;;;5009119;28;20149;-65
2021/07/07 01:30:33;;;;;;;2.63;2.42;;;27.00;54.10;;;;;;5008118;28;19922;-65
2021/07/07 01:33:00;;;;;;;2.70;2.50;;;27.00;54.10;;;;;;5008266;28;20124;-65
2021/07/07 01:35:28;;;;;;;2.95;2.70;;;27.00;54.10;;;;;;5007579;28;20053;-65
2021/07/07 01:37:55;;;;;;;2.13;2.03;;;27.00;54.10;;;;;;5008130;28;20073;-66
2021/07/07 01:40:25;;;;;;;2.40;2.30;;;27.00;54.10;;;;;;5008183;28;20665;-65
2021/07/07 01:42:53;;;;;;;2.15;2.05;;;27.00;54.10;;;;;;5007650;28;20053;-65
2021/07/07 01:45:22;;;;;;;2.30;2.20;;;27.00;54.10;;;;;;5007626;28;20519;-65
2021/07/07 01:47:51;;;;;;;2.78;2.55;;;27.00;54.70;;;;;;5010727;28;20142;-65
2021/07/07 01:50:21;;;;;;;2.13;2.03;;;27.00;54.20;;;;;;5011264;28;20050;-65
2021/07/07 01:52:48;;;;;;;2.67;2.47;;;27.00;54.20;;;;;;5011558;28;20065;-66
2021/07/07 01:55:17;;;;;;;2.20;2.10;;;27.00;54.20;;;;;;5011180;28;20077;-65
2021/07/07 01:57:46;;;;;;;2.30;2.10;;;26.90;54.10;;;;;;5011285;28;20080;-65
2021/07/07 02:00:23;;;;;;;2.20;2.00;;;26.90;54.10;;;;;;5011797;28;20054;-65
2021/07/07 02:02:52;;;;;;;2.38;2.28;;;27.00;54.20;;;;;;5010990;28;20046;-65
2021/07/07 02:05:23;;;;;;;2.03;1.92;;;26.90;54.10;;;;;;5011364;28;20078;-65
2021/07/07 02:07:51;;;;;;;2.35;2.25;;;26.90;54.20;;;;;;5011041;28;20475;-65
2021/07/07 02:10:19;;;;;;;2.60;2.40;;;27.00;54.20;;;;;;5010605;28;20050;-66
2021/07/07 02:12:48;;;;;;;2.53;2.38;;;26.90;54.10;;;;;;5010982;28;20049;-65
2021/07/07 02:15:21;;;;;;;3.97;2.25;;;26.90;54.10;;;;;;5011064;28;20081;-65
2021/07/07 02:17:49;;;;;;;2.38;2.17;;;26.90;54.10;;;;;;5011328;28;20144;-65
2021/07/07 02:20:19;;;;;;;2.35;2.15;;;26.90;54.10;;;;;;5010713;28;20052;-65
2021/07/07 02:22:48;;;;;;;2.55;2.35;;;27.00;54.10;;;;;;5010865;28;20415;-65
2021/07/07 02:25:22;;;;;;;2.42;2.10;;;26.90;54.60;;;;;;5010939;28;20144;-65
2021/07/07 02:27:51;;;;;;;2.17;2.08;;;26.90;54.10;;;;;;5011349;28;20129;-66
2021/07/07 02:30:21;;;;;;;2.65;2.45;;;26.90;54.00;;;;;;5010657;28;20057;-66
2021/07/07 02:32:49;;;;;;;;;;;26.90;54.00;;;;;;5010944;28;20054;-65
2021/07/07 02:35:19;;;;;;;2.80;2.60;;;26.90;54.00;;;;;;5010512;28;20008;-65
2021/07/07 02:37:53;;;;;;;2.15;1.98;;;26.90;54.00;;;;;;5010714;28;20145;-66
2021/07/07 02:40:26;;;;;;;2.72;2.53;;;26.90;54.00;;;;;;5010275;28;20042;-65
2021/07/07 02:42:53;;;;;;;2.65;2.45;;;26.90;54.10;;;;;;5010097;28;20136;-65
2021/07/07 02:45:25;;;;;;;2.60;2.50;;;26.90;54.10;;;;;;5010481;28;20056;-66
2021/07/07 02:47:53;;;;;;;;;;;26.90;54.10;;;;;;5010834;28;20042;-65
2021/07/07 02:50:21;;;;;;;2.45;2.25;;;26.90;54.10;;;;;;5010928;28;20586;-66
2021/07/07 02:52:50;;;;;;;2.85;2.65;;;26.90;54.10;;;;;;5009997;28;20050;-66
2021/07/07 02:55:19;;;;;;;2.47;2.28;;;26.90;54.10;;;;;;5025357;28;20141;-66
2021/07/07 02:57:57;;;;;;;2.22;2.13;;;26.90;54.10;;;;;;5009324;28;20684;-65
2021/07/07 03:00:43;;;;;;;3.63;2.65;;;26.90;54.10;;;;;;5009172;28;20090;-65
2021/07/07 03:03:19;;;;;;;2.60;2.45;;;26.90;54.10;;;;;;5010027;28;20672;-65
2021/07/07 03:05:55;;;;;;;2.75;2.55;;;26.90;54.10;;;;;;5009935;28;20473;-66
2021/07/07 03:08:24;;;;;;;2.75;2.42;;;26.90;54.10;;;;;;5010023;28;20137;-66
2021/07/07 03:10:52;;;;;;;2.42;2.22;;;26.90;54.10;;;;;;5010291;28;20053;-66
2021/07/07 03:13:20;;;;;;;2.40;2.30;;;26.90;54.10;;;;;;5009503;28;20133;-66
2021/07/07 03:15:50;;;;;;;2.85;2.65;;;26.90;54.10;;;;;;5009818;28;20126;-65
2021/07/07 03:18:17;;;;;;;2.92;2.63;;;26.90;54.10;;;;;;5009649;28;20042;-65
2021/07/07 03:20:47;;;;;;;2.38;2.03;;;26.90;54.10;;;;;;5009332;28;20145;-65
2021/07/07 03:23:16;;;;;;;;;;;26.90;54.10;;;;;;5009757;28;20049;-65
2021/07/07 03:25:44;;;;;;;2.35;2.25;;;26.90;54.10;;;;;;5010056;28;20116;-65
2021/07/07 03:28:11;;;;;;;2.30;2.20;;;26.90;54.10;;;;;;5009675;28;20238;-65
2021/07/07 03:30:38;;;;;;;2.78;2.58;;;26.80;54.00;;;;;;5009407;28;20137;-66
2021/07/07 03:33:05;;;;;;;3.22;2.95;;;26.90;54.00;;;;;;4992406;28;20504;-65
2021/07/07 03:35:33;;;;;;;2.35;2.25;;;26.90;54.00;;;;;;5009441;28;20127;-65
2021/07/07 03:38:00;;;;;;;2.05;1.95;;;27.00;54.00;;;;;;5009588;28;20042;-65
2021/07/07 03:40:29;;;;;;;2.55;2.35;;;26.90;53.90;;;;;;5009226;28;20050;-65
2021/07/07 03:42:57;;;;;;;2.63;2.40;;;26.90;53.80;;;;;;5009019;28;20140;-65
2021/07/07 03:45:26;;;;;;;2.63;2.42;;;27.00;53.80;;;;;;5009430;28;20049;-66
2021/07/07 03:47:54;;;;;;;2.17;2.08;;;27.00;53.80;;;;;;5008833;28;20073;-66
2021/07/07 03:50:22;;;;;;;2.53;2.42;;;27.00;53.70;;;;;;5009559;28;20042;-65
2021/07/07 03:52:49;;;;;;;3.20;2.50;;;27.00;53.70;;;;;;5008754;28;20132;-66
2021/07/07 03:55:18;;;;;;;2.33;2.20;;;27.00;53.70;;;;;;5009325;28;20718;-65
2021/07/07 03:57:45;;;;;;;2.80;2.60;;;27.10;53.70;;;;;;5009097;28;20422;-65
2021/07/07 04:00:18;;;;;;;2.30;2.20;;;27.10;53.60;;;;;;5008877;28;20050;-65
2021/07/07 04:02:45;;;;;;;2.72;2.53;;;27.10;53.60;;;;;;5008869;28;20045;-66
2021/07/07 04:05:12;;;;;;;2.13;2.03;;;27.10;53.50;;;;;;5009122;28;20132;-66
2021/07/07 04:07:40;;;;;;;2.15;2.05;;;27.10;53.50;;;;;;5008877;28;20546;-66
2021/07/07 04:10:09;;;;;;;2.20;2.10;;;27.10;53.40;;;;;;5008504;28;20112;-66
2021/07/07 04:12:36;;;;;;;2.10;2.00;;;27.10;53.40;;;;;;5009024;28;20057;-66
2021/07/07 04:15:05;;;;;;;1.98;1.88;;;27.20;53.40;;;;;;5008522;28;20073;-65
2021/07/07 04:17:35;;;;;;;2.22;2.13;;;27.20;53.40;;;;;;5008674;28;20112;-65
2021/07/07 04:20:09;;;;;;;2.90;2.70;;;27.20;53.30;;;;;;5008172;28;20069;-66
2021/07/07 04:22:37;;;;;;;2.25;2.15;;;27.20;53.30;;;;;;5008958;28;20050;-66
2021/07/07 04:25:07;;;;;;;2.63;2.42;;;27.20;53.20;;;;;;5008499;28;20495;-65
2021/07/07 04:27:36;;;;;;;2.42;2.22;;;27.20;53.20;;;;;;5008079;28;20488;-65
2021/07/07 04:30:07;;;;;;;2.20;2.10;;;27.30;53.20;;;;;;5008393;28;20057;-65
2021/07/07 04:32:34;;;;;;;2.35;2.15;;;27.30;53.10;;;;;;5008438;28;20081;-65
2021/07/07 04:35:02;;;;;;;2.60;2.40;;;27.30;53.10;;;;;;5008318;28;20049;-65
2021/07/07 04:37:30;;;;;;;2.17;2.08;;;27.30;53.00;;;;;;5008722;28;20050;-65
2021/07/07 04:39:57;;;;;;;2.45;2.25;;;27.30;53.00;;;;;;5007879;28;20500;-65
2021/07/07 04:42:24;;;;;;;2.30;2.20;;;27.40;52.90;;;;;;5008338;28;20046;-66
2021/07/07 04:44:51;;;;;;;2.05;1.95;;;27.40;52.80;;;;;;5007706;28;20077;-65
2021/07/07 04:47:18;;;;;;;2.22;2.10;;;27.50;52.80;;;;;;5005775;28;20533;-65
2021/07/07 04:49:46;;;;;;;2.22;2.13;;;27.50;52.70;;;;;;5007188;28;20092;-66
2021/07/07 04:52:13;;;;;;;2.33;2.22;;;27.50;52.60;;;;;;5007764;28;20121;-66
2021/07/07 04:54:40;;;;;;;2.55;2.38;;;27.60;52.60;;;;;;5007050;28;20050;-67
2021/07/07 04:57:07;;;;;;;2.20;2.10;;;27.50;52.50;;;;;;5006285;28;20056;-65
2021/07/07 04:59:34;;;;;;;2.30;2.15;;;27.60;52.50;;;;;;5013137;28;20309;-65
2021/07/07 05:02:09;;;;;;;3.05;2.60;;;27.60;52.40;;;;;;5013004;28;20097;-66
2021/07/07 05:04:36;;;;;;;2.25;2.15;;;27.60;52.40;;;;;;4998778;28;20057;-66
2021/07/07 05:07:03;;;;;;;2.47;2.28;;;27.60;52.20;;;;;;5012619;28;20069;-65
2021/07/07 05:09:30;;;;;;;2.03;1.90;;;27.60;52.30;;;;;;5014986;28;20072;-66
2021/07/07 05:11:58;;;;;;;2.42;2.22;;;27.60;52.50;;;;;;5012107;28;20056;-65
2021/07/07 05:14:25;;;;;;;2.38;2.25;;;27.50;52.70;;;;;;5016384;28;20132;-65
2021/07/07 05:16:53;;;;;;;2.03;1.92;;;27.40;52.90;;;;;;5017550;28;20111;-66
2021/07/07 05:19:20;;;;;;;4.78;2.30;;;27.30;53.20;;;;;;5034953;28;20052;-64
2021/07/07 05:21:51;;;;;;;2.60;2.40;;;27.10;53.60;;;;;;5006676;28;20085;-65
2021/07/07 05:24:18;;;;;;;2.42;2.22;;;27.00;53.80;;;;;;5009117;28;20049;-64
2021/07/07 05:27:04;;;;;;;2.80;2.60;;;26.90;54.20;;;;;;5008992;28;20048;-66
2021/07/07 05:29:31;;;;;;;2.40;2.20;;;26.80;54.60;;;;;;5018442;28;20037;-65
2021/07/07 05:31:59;;;;;;;5.78;3.83;;;26.70;54.70;;;;;;5012692;28;20046;-65
2021/07/07 05:34:26;;;;;;;4.22;3.90;;;26.60;55.00;;;;;;5011018;28;20199;-68
2021/07/07 05:36:53;;;;;;;5.00;3.70;;;26.40;55.10;;;;;;5013830;28;20052;-65
2021/07/07 05:39:21;;;;;;;4.95;4.25;;;26.30;55.30;;;;;;5007131;28;20050;-66
2021/07/07 05:41:56;;;;;;;5.25;4.60;;;26.20;56.00;;;;;;5012892;28;20053;-66
2021/07/07 05:44:24;;;;;;;5.88;5.03;;;26.00;56.40;;;;;;4994376;28;20994;-66
2021/07/07 05:46:51;;;;;;;6.18;5.22;;;25.70;56.80;;;;;;5007265;28;20402;-67
2021/07/07 05:49:19;;;;;;;6.45;5.60;;;25.60;57.30;;;;;;5008225;28;20050;-67
2021/07/07 05:51:46;;;;;;;6.28;5.60;;;25.40;58.20;;;;;;5008631;28;20080;-68
2021/07/07 05:54:13;;;;;;;7.80;5.55;;;25.30;58.50;;;;;;5008396;28;20077;-67
2021/07/07 05:56:40;;;;;;;6.88;5.65;;;25.20;58.80;;;;;;5010188;28;20136;-69
2021/07/07 05:59:07;;;;;;;7.72;5.80;;;25.10;59.20;;;;;;5005822;28;20080;-67
2021/07/07 06:01:35;;;;;;;6.88;6.18;;;25.00;59.50;;;;;;5009964;28;20049;-68
2021/07/07 06:04:02;;;;;;;8.57;7.20;;;24.90;59.70;;;;;;5015211;28;20415;-66
2021/07/07 06:06:29;;;;;;;7.55;6.60;;;24.90;59.80;;;;;;5005193;28;20069;-68
2021/07/07 06:08:57;;;;;;;9.77;6.55;;;24.90;60.20;;;;;;5002625;28;20052;-67
2021/07/07 06:11:24;;;;;;;10.50;7.28;;;24.80;60.70;;;;;;5004428;28;20129;-68
2021/07/07 06:13:52;;;;;;;8.23;6.70;;;24.80;60.30;;;;;;5008284;28;20132;-65
2021/07/07 06:16:20;;;;;;;9.10;7.57;;;24.80;60.10;;;;;;5001439;28;20132;-65
2021/07/07 06:18:47;;;;;;;11.90;7.68;;;24.70;59.90;;;;;;5010233;28;20048;-65
2021/07/07 06:21:14;;;;;;;8.82;6.75;;;24.70;59.90;;;;;;5011598;28;20041;-67
2021/07/07 06:23:41;;;;;;;8.75;7.30;;;24.70;59.90;;;;;;5003266;28;20091;-67
2021/07/07 06:26:09;;;;;;;9.80;7.07;;;24.70;60.00;;;;;;5003400;28;20077;-65
2021/07/07 06:28:37;;;;;;;10.20;7.68;;;24.60;59.90;;;;;;5004512;28;20121;-66
2021/07/07 06:31:05;;;;;;;8.73;7.63;;;24.70;60.00;;;;;;4997268;28;20081;-66
2021/07/07 06:33:32;;;;;;;13.80;7.88;;;24.60;60.50;;;;;;5005967;28;20049;-65
2021/07/07 06:35:59;;;;;;;7.68;6.88;;;24.50;61.40;;;;;;5006308;28;20085;-65
2021/07/07 06:38:27;;;;;;;11.98;7.50;;;24.50;61.90;;;;;;5005609;28;20089;-64
2021/07/07 06:40:54;;;;;;;8.43;7.20;;;24.50;61.90;;;;;;5005051;28;20104;-65
2021/07/07 06:43:21;;;;;;;9.30;8.25;;;24.50;61.80;;;;;;5007526;28;20053;-66
2021/07/07 06:45:48;;;;;;;10.52;7.97;;;24.50;61.80;;;;;;5010707;28;20162;-67
2021/07/07 06:48:15;;;;;;;9.00;8.02;;;24.50;61.70;;;;;;5005953;28;20238;-65
2021/07/07 06:50:45;;;;;;;8.48;7.57;;;24.40;61.80;;;;;;5034831;28;20054;-66
2021/07/07 06:53:12;;;;;;;11.20;8.15;;;24.40;61.70;;;;;;5010663;28;20038;-66
2021/07/07 06:55:40;;;;;;;8.98;7.80;;;24.40;61.70;;;;;;4999796;28;20081;-65
2021/07/07 06:58:12;;;;;;;8.88;7.53;;;24.40;61.70;;;;;;5003713;28;20150;-65
2021/07/07 07:00:40;;;;;;;8.98;7.95;;;24.40;61.70;;;;;;5001327;28;20499;-66
2021/07/07 07:03:07;;;;;;;8.20;7.40;;;24.40;61.70;;;;;;5000018;28;20052;-64
2021/07/07 07:05:35;;;;;;;8.00;7.22;;;24.40;61.60;;;;;;5003395;28;20052;-68
2021/07/07 07:08:03;;;;;;;8.68;7.78;;;24.40;61.60;;;;;;5004366;28;20044;-65
2021/07/07 07:10:30;;;;;;;9.88;7.85;;;24.40;61.80;;;;;;5006970;28;20125;-65
2021/07/07 07:12:58;;;;;;;10.10;8.05;;;24.40;62.00;;;;;;5007077;28;20077;-66
2021/07/07 07:15:25;;;;;;;8.02;7.22;;;24.50;62.40;;;;;;5004968;28;20067;-66
2021/07/07 07:17:52;;;;;;;9.13;7.30;;;24.50;62.10;;;;;;5010189;28;20068;-69
2021/07/07 07:20:27;;;;;;;8.48;7.68;;;24.50;62.00;;;;;;5009243;28;20049;-65
2021/07/07 07:22:54;;;;;;;9.18;7.78;;;24.60;62.10;;;;;;5005332;28;20790;-65
2021/07/07 07:25:21;;;;;;;8.43;7.63;;;24.50;61.80;;;;;;5000723;28;20099;-65
2021/07/07 07:27:48;;;;;;;10.73;7.50;;;24.60;61.80;;;;;;5002975;28;20137;-67
2021/07/07 07:30:16;;;;;;;9.77;8.75;;;24.60;61.50;;;;;;5003470;28;20045;-64
2021/07/07 07:32:45;;;;;;;9.70;8.18;;;24.60;61.50;;;;;;5003980;28;20056;-66
2021/07/07 07:35:19;;;;;;;9.45;8.45;;;24.60;61.40;;;;;;5002019;28;20042;-66
2021/07/07 07:38:14;;;;;;;9.95;7.93;;;24.60;61.50;;;;;;5003987;28;20517;-68
2021/07/07 07:40:37;;;;;;;9.88;7.90;;;24.60;61.70;;;;;;5001970;28;20057;-67
2021/07/07 07:43:06;;;;;;;9.23;8.32;;;24.60;61.90;;;;;;5005657;28;20056;-66
2021/07/07 07:45:35;;;;;;;10.57;9.48;;;24.60;61.80;;;;;;5001799;28;20093;-67
2021/07/07 07:48:03;;;;;;;10.00;9.00;;;24.60;61.80;;;;;;4999515;28;20034;-68
2021/07/07 07:50:32;;;;;;;10.50;8.98;;;24.60;61.60;;;;;;4998732;28;20365;-67
2021/07/07 07:52:59;;;;;;;11.63;9.32;;;24.60;61.30;;;;;;5001920;28;20045;-67
2021/07/07 07:55:26;;;;;;;10.70;8.70;;;24.60;61.40;;;;;;5005620;28;20376;-65
2021/07/07 07:57:55;;;;;;;13.60;9.55;;;24.60;61.40;;;;;;5004380;28;20505;-66
2021/07/07 08:00:24;;;;;;;10.35;9.25;;;24.60;61.50;;;;;;5003995;28;20548;-65
2021/07/07 08:02:52;;;;;;;10.77;9.00;;;24.60;61.40;;;;;;4999467;28;20120;-66
2021/07/07 08:05:21;;;;;;;11.47;9.10;;;24.60;61.20;;;;;;5002193;28;20057;-67
2021/07/07 08:07:49;;;;;;;9.48;8.57;;;24.60;61.20;;;;;;5005032;28;20370;-66
2021/07/07 08:10:21;;;;;;;10.10;9.02;;;24.60;61.10;;;;;;5002378;28;20521;-65
2021/07/07 08:12:51;;;;;;;9.48;8.48;;;24.60;61.00;;;;;;5003833;28;20141;-64
2021/07/07 08:15:20;;;;;;;9.85;8.88;;;24.60;60.90;;;;;;5008170;28;20049;-64
2021/07/07 08:17:47;;;;;;;9.25;8.20;;;24.60;60.90;;;;;;5002905;28;20590;-65
2021/07/07 08:20:16;;;;;;;9.18;8.27;;;24.60;60.70;;;;;;5003398;28;20053;-65
2021/07/07 08:22:44;;;;;;;11.27;8.32;;;24.70;60.80;;;;;;5007119;28;20046;-67
2021/07/07 08:25:12;;;;;;;9.13;8.27;;;24.60;60.70;;;;;;5001622;28;20093;-66
2021/07/07 08:27:40;;;;;;;9.38;8.48;;;24.60;61.20;;;;;;5001483;28;20069;-66
2021/07/07 08:30:11;;;;;;;9.88;8.88;;;24.70;61.40;;;;;;5002545;28;20104;-64
2021/07/07 08:32:39;;;;;;;9.25;8.38;;;24.70;61.40;;;;;;5002242;28;20570;-66
2021/07/07 08:35:07;;;;;;;9.18;8.27;;;24.70;61.40;;;;;;4996326;28;20129;-66
2021/07/07 08:37:34;;;;;;;8.88;8.07;;;24.70;61.40;;;;;;5005480;28;20125;-64
2021/07/07 08:40:04;;;;;;;9.00;8.10;;;24.70;61.40;;;;;;5003650;28;20061;-65
2021/07/07 08:42:34;;;;;;;8.65;7.85;;;24.70;61.40;;;;;;4997293;28;20045;-66
2021/07/07 08:45:08;;;;;;;8.68;7.82;;;24.70;61.30;;;;;;5003635;28;20177;-66
2021/07/07 08:47:41;;;;;;;9.85;7.78;;;24.70;61.20;;;;;;5001611;28;20237;-65
2021/07/07 08:50:22;;;;;;;8.88;7.97;;;24.70;61.20;;;;;;5005928;28;20046;-65
2021/07/07 08:52:50;;;;;;;8.15;7.35;;;24.70;61.10;;;;;;5000121;28;20050;-66
2021/07/07 08:55:19;;;;;;;8.80;8.00;;;24.80;61.10;;;;;;5003655;28;20057;-66
2021/07/07 08:57:47;;;;;;;8.88;8.00;;;24.80;61.10;;;;;;5007165;28;20046;-66
2021/07/07 09:00:27;;;;;;;7.65;6.95;;;24.80;61.20;;;;;;5005871;28;20129;-66
2021/07/07 09:02:56;;;;;;;;;;;24.80;61.40;;;;;;5009834;28;20089;-66
2021/07/07 09:05:26;;;;;;;8.77;7.63;;;24.80;61.30;;;;;;5005150;28;20532;-65
2021/07/07 09:07:53;;;;;;;7.67;7.03;;;24.80;61.30;;;;;;5010706;28;20129;-66
2021/07/07 09:10:30;;;;;;;9.23;8.40;;;24.80;61.50;;;;;;5009188;28;20113;-65
2021/07/07 09:13:10;;;;;;;10.73;7.68;;;24.80;61.50;;;;;;5008358;28;20072;-65
2021/07/07 09:15:38;;;;;;;9.55;7.50;;;24.80;61.60;;;;;;5008340;28;20499;-66
2021/07/07 09:18:05;;;;;;;8.15;7.35;;;24.70;61.50;;;;;;5011089;28;20129;-66
2021/07/07 09:20:38;;;;;;;7.93;7.13;;;24.70;61.60;;;;;;5008991;28;20037;-65
2021/07/07 09:23:24;;;;;;;9.07;7.50;;;24.80;61.50;;;;;;5005009;28;20141;-65
2021/07/07 09:25:57;;;;;;;8.85;7.95;;;24.80;61.40;;;;;;5005735;28;20065;-68
2021/07/07 09:28:31;;;;;;;7.75;7.05;;;24.80;61.40;;;;;;5008757;28;20096;-68
2021/07/07 09:31:02;;;;;;;8.50;7.70;;;24.70;61.60;;;;;;5009133;28;20049;-66
2021/07/07 09:33:39;;;;;;;8.25;7.45;;;24.70;61.70;;;;;;5011278;28;20038;-65
2021/07/07 09:36:17;;;;;;;11.38;8.00;;;24.80;62.00;;;;;;5007063;28;20132;-65
2021/07/07 09:38:45;;;;;;;9.95;7.18;;;24.70;62.10;;;;;;5007876;28;20418;-64
2021/07/07 09:41:14;;;;;;;7.80;7.10;;;24.80;62.10;;;;;;5010345;28;20522;-66
2021/07/07 09:43:50;;;;;;;8.50;7.65;;;24.80;62.10;;;;;;5008517;28;20124;-63
2021/07/07 09:46:19;;;;;;;8.38;7.50;;;24.80;62.20;;;;;;5006627;28;20133;-64
2021/07/07 09:48:47;;;;;;;10.25;7.70;;;24.80;62.40;;;;;;5000895;28;20057;-64
2021/07/07 09:51:16;;;;;;;7.65;6.95;;;24.80;62.60;;;;;;5008693;28;20156;-65
2021/07/07 09:53:44;;;;;;;7.53;6.75;;;24.90;62.60;;;;;;5008034;28;20038;-63
2021/07/07 09:56:12;;;;;;;8.05;7.30;;;24.80;62.30;;;;;;5006218;28;20076;-64
2021/07/07 09:58:39;;;;;;;9.38;7.85;;;24.90;62.60;;;;;;5009979;28;20046;-63
2021/07/07 10:01:06;;;;;;;8.23;7.43;;;24.90;62.80;;;;;;5011170;28;20133;-64
2021/07/07 10:03:36;;;;;;;7.70;6.93;;;24.80;62.60;;;;;;5008145;28;20925;-62
2021/07/07 10:06:05;;;;;;;7.53;6.83;;;24.80;62.40;;;;;;5008191;28;20048;-64
2021/07/07 10:08:34;;;;;;;7.82;7.03;;;24.90;62.60;;;;;;5006597;28;20069;-64
2021/07/07 10:11:02;;;;;;;8.80;7.25;;;24.80;62.60;;;;;;5007839;28;20045;-64
2021/07/07 10:13:30;;;;;;;8.88;7.35;;;24.80;62.60;;;;;;5008319;28;20081;-66
2021/07/07 10:15:57;;;;;;;8.00;7.18;;;24.80;62.50;;;;;;5006684;28;20042;-65
2021/07/07 10:18:25;;;;;;;9.20;7.63;;;24.80;62.50;;;;;;5008722;28;20368;-65
2021/07/07 10:20:52;;;;;;;8.20;7.28;;;24.90;62.40;;;;;;5008002;28;20060;-64
2021/07/07 10:23:21;;;;;;;8.25;7.28;;;24.90;62.30;;;;;;5007853;28;20041;-64
2021/07/07 10:25:59;;;;;;;8.07;7.28;;;24.90;62.30;;;;;;5006871;28;20521;-64
2021/07/07 10:28:27;;;;;;;8.20;7.40;;;24.90;62.30;;;;;;5006157;28;20142;-65
2021/07/07 10:30:57;;;;;;;7.72;6.95;;;24.90;62.30;;;;;;5006303;28;20054;-66
2021/07/07 10:33:27;;;;;;;8.85;7.18;;;24.90;62.20;;;;;;5004058;28;20045;-65
2021/07/07 10:36:14;;;;;;;;;;;24.90;62.10;;;;;;5005275;28;20084;-65
2021/07/07 10:38:49;;;;;;;8.73;7.63;;;24.90;62.10;;;;;;5009786;28;19993;-64
2021/07/07 10:41:16;;;;;;;9.35;7.88;;;24.90;62.10;;;;;;5005772;28;20639;-65
2021/07/07 10:43:45;;;;;;;8.68;7.35;;;24.90;61.90;;;;;;5007384;28;20117;-65
2021/07/07 10:46:33;;;;;;;8.57;7.45;;;24.90;61.70;;;;;;5002595;28;20273;-64
2021/07/07 10:49:23;;;;;;;7.47;6.75;;;24.90;61.60;;;;;;5008575;28;20038;-63
2021/07/07 10:51:53;;;;;;;8.73;7.82;;;24.90;61.50;;;;;;5008892;28;20129;-65
2021/07/07 10:54:27;;;;;;;8.25;7.38;;;24.90;61.50;;;;;;5008371;28;20165;-63
2021/07/07 10:56:55;;;;;;;8.63;7.32;;;24.90;61.40;;;;;;5004369;28;20081;-64
2021/07/07 10:59:42;;;;;;;8.70;7.80;;;24.80;61.70;;;;;;5005990;28;20037;-64
2021/07/07 11:02:19;;;;;;;10.80;7.97;;;24.80;62.30;;;;;;5003188;28;20064;-66
2021/07/07 11:05:02;;;;;;;8.15;7.35;;;24.80;61.80;;;;;;5004504;28;20097;-64
2021/07/07 11:07:36;;;;;;;8.40;7.60;;;24.80;61.60;;;;;;5004818;28;20053;-65
2021/07/07 11:10:17;;;;;;;9.32;7.35;;;24.80;61.70;;;;;;5004660;28;20044;-67
2021/07/07 11:13:14;;;;;;;7.90;7.10;;;24.80;61.70;;;;;;5006809;28;20507;-65
2021/07/07 11:15:43;;;;;;;10.80;7.07;;;24.80;62.00;;;;;;5006232;28;20116;-66
2021/07/07 11:18:19;;;;;;;8.48;7.57;;;24.80;61.90;;;;;;5000320;28;20115;-67
2021/07/07 11:20:59;;;;;;;8.25;7.40;;;24.90;61.80;;;;;;5013303;28;20931;-67
2021/07/07 11:23:27;;;;;;;8.07;7.28;;;24.90;61.70;;;;;;5004990;28;20128;-67
2021/07/07 11:26:07;;;;;;;8.15;7.28;;;24.90;61.60;;;;;;5002375;28;20050;-67
2021/07/07 11:28:34;;;;;;;7.88;7.07;;;24.90;61.60;;;;;;5001472;28;20038;-66
2021/07/07 11:31:02;;;;;;;8.65;7.45;;;24.90;61.50;;;;;;5002570;28;20651;-66
2021/07/07 11:33:29;;;;;;;9.10;7.13;;;24.90;62.30;;;;;;5018123;28;20462;-65
2021/07/07 11:35:57;;;;;;;8.18;7.38;;;24.90;63.00;;;;;;5003551;28;20046;-67
2021/07/07 11:38:41;;;;;;;8.73;6.95;;;24.90;63.00;;;;;;4995789;28;20054;-66
2021/07/07 11:41:14;;;;;;;9.77;7.10;;;24.90;62.50;;;;;;5004357;28;20196;-67
2021/07/07 11:43:44;;;;;;;7.50;6.47;;;24.90;63.00;;;;;;5002070;28;20057;-66
2021/07/07 11:46:13;;;;;;;8.35;6.50;;;24.90;63.30;;;;;;5001298;28;20046;-67
2021/07/07 11:48:43;;;;;;;7.60;6.63;;;24.90;63.70;;;;;;5004634;28;20133;-66
2021/07/07 11:51:16;;;;;;;9.02;6.82;;;24.90;63.90;;;;;;5006396;28;20103;-66
2021/07/07 11:53:49;;;;;;;9.02;7.13;;;24.90;63.90;;;;;;5001353;28;20034;-67
2021/07/07 11:56:18;;;;;;;7.20;6.43;;;24.90;63.90;;;;;;5000873;28;20132;-67
2021/07/07 11:58:49;;;;;;;8.00;7.18;;;24.90;63.90;;;;;;4990394;28;20768;-66
2021/07/07 12:01:23;;;;;;;7.90;7.10;;;24.90;63.50;;;;;;5003927;28;20077;-66
2021/07/07 12:04:00;;;;;;;7.22;6.53;;;24.90;63.60;;;;;;5007739;28;20049;-66
2021/07/07 12:06:37;;;;;;;7.03;6.32;;;24.90;63.70;;;;;;5005283;28;20434;-67
2021/07/07 12:09:19;;;;;;;7.78;7.07;;;24.90;63.70;;;;;;5008364;28;20073;-66
2021/07/07 12:11:57;;;;;;;7.78;6.97;;;24.90;63.70;;;;;;5001446;28;20198;-67
2021/07/07 12:14:28;;;;;;;8.15;7.38;;;24.90;63.60;;;;;;5004622;28;20145;-66
2021/07/07 12:16:57;;;;;;;8.15;7.00;;;24.90;63.50;;;;;;5006637;28;20050;-66
2021/07/07 12:19:25;;;;;;;8.63;6.65;;;24.90;63.10;;;;;;5004949;28;21529;-67
2021/07/07 12:21:55;;;;;;;7.22;6.50;;;24.90;62.90;;;;;;5001767;28;20042;-67
2021/07/07 12:24:24;;;;;;;;;;;24.90;62.90;;;;;;5012244;28;20160;-67
2021/07/07 12:26:54;;;;;;;6.63;6.07;;;24.90;63.00;;;;;;5015494;28;19967;-67
2021/07/07 12:29:24;;;;;;;7.05;6.43;;;24.90;63.00;;;;;;5005836;28;20068;-67
2021/07/07 12:32:01;;;;;;;7.03;6.40;;;24.90;62.80;;;;;;5005107;28;20064;-66
2021/07/07 12:34:31;;;;;;;6.30;5.70;;;24.90;62.70;;;;;;4999263;28;20051;-67
2021/07/07 12:37:00;;;;;;;7.15;6.45;;;24.90;62.70;;;;;;5008181;28;20448;-67
2021/07/07 12:39:31;;;;;;;7.32;6.63;;;24.90;62.60;;;;;;5005886;28;20057;-66
2021/07/07 12:42:12;;;;;;;7.35;6.65;;;24.90;62.40;;;;;;5004796;28;20073;-65
2021/07/07 12:44:42;;;;;;;6.72;6.13;;;24.90;62.30;;;;;;5002675;28;20049;-67
2021/07/07 12:47:15;;;;;;;6.43;5.83;;;24.90;62.20;;;;;;5002439;28;20060;-65
2021/07/07 12:49:50;;;;;;;6.45;5.85;;;24.90;62.30;;;;;;4999683;28;20030;-64
2021/07/07 12:52:29;;;;;;;7.47;6.05;;;25.00;62.50;;;;;;5000848;28;20106;-66
2021/07/07 12:55:08;;;;;;;6.20;5.60;;;24.90;62.40;;;;;;5038144;28;20041;-65
2021/07/07 12:58:04;;;;;;;12.55;6.15;;;24.90;62.10;;;;;;5009821;28;20143;-64
2021/07/07 13:00:37;;;;;;;5.88;5.38;;;24.90;62.00;;;;;;5004399;28;20133;-66
2021/07/07 13:03:14;;;;;;;6.22;5.63;;;24.90;62.20;;;;;;5003098;28;20069;-65